createdAt,value
2019-06-07T00:02:16.321Z,99.90
2019-06-07T00:04:43.745Z,99.90
2019-06-07T00:07:14.979Z,99.90
2019-06-07T00:09:44.906Z,99.90
2019-06-07T00:12:17.575Z,99.90
2019-06-07T00:14:45.794Z,99.90
2019-06-07T00:17:19.606Z,99.90
2019-06-07T00:19:46.666Z,99.90
2019-06-07T00:22:29.634Z,99.90
2019-06-07T00:24:47.591Z,99.90
2019-06-07T00:27:21.976Z,99.90
2019-06-07T00:29:49.167Z,99.90
2019-06-07T00:32:22.024Z,99.90
2019-06-07T00:34:49.880Z,99.90
2019-06-07T00:37:23.500Z,99.90
2019-06-07T00:40:12.830Z,99.90
2019-06-07T00:42:23.959Z,99.90
2019-06-07T00:47:24.905Z,99.90
2019-06-07T00:49:51.706Z,99.90
2019-06-07T00:53:11.684Z,99.90
2019-06-07T00:57:24.334Z,99.90
2019-06-07T00:59:53.119Z,99.90
2019-06-07T01:02:28.894Z,99.90
2019-06-07T01:07:24.477Z,99.90
2019-06-07T01:09:54.120Z,99.90
2019-06-07T01:12:26.852Z,99.90
2019-06-07T01:14:55.215Z,99.90
2019-06-07T01:17:39.884Z,99.90
2019-06-07T01:19:56.957Z,99.90
2019-06-07T01:22:29.278Z,99.90
2019-06-07T01:24:57.726Z,99.90
2019-06-07T01:27:28.759Z,99.90
2019-06-07T01:29:58.814Z,99.90
2019-06-07T01:32:31.761Z,99.90
2019-06-07T01:34:59.858Z,99.90
2019-06-07T01:37:30.506Z,99.90
2019-06-07T01:40:00.806Z,99.90
2019-06-07T01:42:31.297Z,99.90
2019-06-07T01:45:01.550Z,99.90
2019-06-07T01:47:32.415Z,99.90
2019-06-07T01:50:02.316Z,99.90
2019-06-07T01:52:32.711Z,99.90
2019-06-07T01:55:03.086Z,99.90
2019-06-07T01:57:45.416Z,99.90
2019-06-07T02:00:04.124Z,99.90
2019-06-07T02:02:34.569Z,99.90
2019-06-07T02:05:05.361Z,99.90
2019-06-07T02:07:35.750Z,99.90
2019-06-07T02:10:06.546Z,99.90
2019-06-07T02:12:43.163Z,99.90
2019-06-07T02:15:08.396Z,99.90
2019-06-07T02:17:38.932Z,99.90
2019-06-07T02:20:09.584Z,99.90
2019-06-07T02:22:39.995Z,99.90
2019-06-07T02:25:36.944Z,99.90
2019-06-07T02:27:41.353Z,99.90
2019-06-07T02:32:42.859Z,99.90
2019-06-07T02:35:13.358Z,99.90
2019-06-07T02:37:43.846Z,99.90
2019-06-07T02:40:14.455Z,99.90
2019-06-07T02:42:44.923Z,99.90
2019-06-07T02:45:15.445Z,99.90
2019-06-07T02:47:45.990Z,99.90
2019-06-07T02:50:16.744Z,99.90
2019-06-07T02:52:48.774Z,99.90
2019-06-07T02:55:17.870Z,99.90
2019-06-07T02:57:48.278Z,99.90
2019-06-07T03:00:41.412Z,99.90
2019-06-07T03:02:56.938Z,99.90
2019-06-07T03:05:29.845Z,99.90
2019-06-07T03:07:57.975Z,99.90
2019-06-07T03:10:29.846Z,99.90
2019-06-07T03:12:59.105Z,99.90
2019-06-07T03:15:35.356Z,99.90
2019-06-07T03:18:05.456Z,99.90
2019-06-07T03:20:36.811Z,99.90
2019-06-07T03:23:06.650Z,99.90
2019-06-07T03:25:39.237Z,99.90
2019-06-07T03:28:08.505Z,99.90
2019-06-07T03:30:57.908Z,99.90
2019-06-07T03:35:40.947Z,99.90
2019-06-07T03:38:11.383Z,99.90
2019-06-07T03:40:41.792Z,99.90
2019-06-07T03:43:12.209Z,99.90
2019-06-07T03:45:42.658Z,99.90
2019-06-07T03:48:12.955Z,99.90
2019-06-07T03:50:43.362Z,99.90
2019-06-07T03:53:13.682Z,99.90
2019-06-07T03:55:44.190Z,99.90
2019-06-07T03:58:31.827Z,99.90
2019-06-07T04:00:44.893Z,99.90
2019-06-07T04:03:32.883Z,99.90
2019-06-07T04:05:45.746Z,99.90
2019-06-07T04:08:16.220Z,99.90
2019-06-07T04:10:59.078Z,99.90
2019-06-07T04:13:17.074Z,99.90
2019-06-07T04:15:47.594Z,99.90
2019-06-07T04:18:18.050Z,99.90
2019-06-07T04:20:48.317Z,99.90
2019-06-07T04:23:27.952Z,99.90
2019-06-07T04:25:49.094Z,99.90
2019-06-07T04:28:19.762Z,99.90
2019-06-07T04:30:50.398Z,99.90
2019-06-07T04:33:20.733Z,99.90
2019-06-07T04:35:51.435Z,99.90
2019-06-07T04:38:21.997Z,99.90
2019-06-07T04:40:52.716Z,99.90
2019-06-07T04:43:23.853Z,99.90
2019-06-07T04:45:54.567Z,99.90
2019-06-07T04:50:54.954Z,99.90
2019-06-07T04:53:25.455Z,99.90
2019-06-07T04:55:56.237Z,99.90
2019-06-07T04:58:26.745Z,99.90
2019-06-07T05:01:02.989Z,99.90
2019-06-07T05:03:27.743Z,99.90
2019-06-07T05:05:58.126Z,99.90
2019-06-07T05:08:31.490Z,99.90
2019-06-07T05:10:59.130Z,99.90
2019-06-07T05:13:31.506Z,99.90
2019-06-07T05:16:00.118Z,99.90
2019-06-07T05:18:32.807Z,99.90
2019-06-07T05:21:00.821Z,99.90
2019-06-07T05:26:02.257Z,99.90
2019-06-07T05:28:32.662Z,99.90
2019-06-07T05:31:05.758Z,99.90
2019-06-07T05:33:36.616Z,99.90
2019-06-07T05:36:04.802Z,99.90
2019-06-07T05:38:36.078Z,99.90
2019-06-07T05:43:39.269Z,99.90
2019-06-07T05:46:06.205Z,99.90
2019-06-07T05:48:40.308Z,99.90
2019-06-07T05:51:07.399Z,99.90
2019-06-07T05:53:40.000Z,99.90
2019-06-07T05:56:08.185Z,99.90
2019-06-07T05:58:41.906Z,99.90
2019-06-07T06:06:08.601Z,99.90
2019-06-07T06:08:41.384Z,99.90
2019-06-07T06:11:09.470Z,99.90
2019-06-07T06:14:01.442Z,99.90
2019-06-07T06:16:10.335Z,99.90
2019-06-07T06:18:42.987Z,99.90
2019-06-07T06:21:19.477Z,99.90
2019-06-07T06:23:43.381Z,99.90
2019-06-07T06:26:12.101Z,99.90
2019-06-07T06:28:42.737Z,99.90
2019-06-07T06:31:13.071Z,99.90
2019-06-07T06:33:44.701Z,99.90
2019-06-07T06:36:13.712Z,99.90
2019-06-07T06:38:46.363Z,99.90
2019-06-07T06:41:16.447Z,99.90
2019-06-07T06:43:49.374Z,99.90
2019-06-07T06:46:31.895Z,99.90
2019-06-07T06:48:51.411Z,99.90
2019-06-07T06:51:16.813Z,99.90
2019-06-07T06:53:49.867Z,99.90
2019-06-07T06:56:17.829Z,99.90
2019-06-07T06:59:27.373Z,99.90
2019-06-07T07:01:18.641Z,99.90
2019-06-07T07:04:07.265Z,99.90
2019-06-07T07:06:26.250Z,99.90
2019-06-07T07:08:52.781Z,99.90
2019-06-07T07:11:23.123Z,99.90
2019-06-07T07:13:55.859Z,99.90
2019-06-07T07:16:22.093Z,99.90
2019-06-07T07:18:54.582Z,99.90
2019-06-07T07:21:22.994Z,99.90
2019-06-07T07:24:19.662Z,99.90
2019-06-07T07:26:23.937Z,99.90
2019-06-07T07:28:57.301Z,99.90
2019-06-07T07:31:25.091Z,99.90
2019-06-07T07:36:38.640Z,99.90
2019-06-07T07:41:27.822Z,99.90
2019-06-07T07:44:05.985Z,99.90
2019-06-07T07:46:30.245Z,99.90
2019-06-07T07:48:59.899Z,99.90
2019-06-07T07:51:30.334Z,99.90
2019-06-07T07:54:10.200Z,99.90
2019-06-07T07:56:31.091Z,99.90
2019-06-07T07:59:02.629Z,99.90
2019-06-07T08:01:31.846Z,99.90
2019-06-07T08:04:02.136Z,99.90
2019-06-07T08:06:32.701Z,99.90
2019-06-07T08:09:03.356Z,99.90
2019-06-07T08:11:33.864Z,99.90
2019-06-07T08:14:04.341Z,99.90
2019-06-07T08:16:34.761Z,99.90
2019-06-07T08:19:05.207Z,99.90
2019-06-07T08:21:35.737Z,99.90
2019-06-07T08:26:36.154Z,99.90
2019-06-07T08:29:06.689Z,99.90
2019-06-07T08:31:37.169Z,99.90
2019-06-07T08:34:07.503Z,99.90
2019-06-07T08:36:42.297Z,99.90
2019-06-07T08:39:09.506Z,99.90
2019-06-07T08:41:53.818Z,99.90
2019-06-07T08:44:23.398Z,99.90
2019-06-07T08:46:40.833Z,99.90
2019-06-07T08:49:11.431Z,99.90
2019-06-07T08:51:41.817Z,99.90
2019-06-07T08:54:22.516Z,99.90
2019-06-07T08:56:43.530Z,99.90
2019-06-07T08:59:13.240Z,99.90
2019-06-07T09:01:43.706Z,99.90
2019-06-07T09:04:14.070Z,99.90
2019-06-07T09:09:15.157Z,99.90
2019-06-07T09:11:45.618Z,99.90
2019-06-07T09:14:16.062Z,99.90
2019-06-07T09:16:46.406Z,99.90
2019-06-07T09:19:17.041Z,99.90
2019-06-07T09:21:47.522Z,99.90
2019-06-07T09:26:47.747Z,99.90
2019-06-07T09:29:18.787Z,99.90
2019-06-07T09:34:19.374Z,99.90
2019-06-07T09:36:49.907Z,99.90
2019-06-07T09:39:20.286Z,99.90
2019-06-07T09:44:25.444Z,99.90
2019-06-07T09:47:12.782Z,99.90
2019-06-07T09:49:32.277Z,99.90
2019-06-07T09:51:51.790Z,99.90
2019-06-07T09:55:03.832Z,99.90
2019-06-07T09:56:52.494Z,99.90
2019-06-07T09:59:22.749Z,99.90
2019-06-07T10:01:53.170Z,99.90
2019-06-07T10:04:31.238Z,99.90
2019-06-07T10:06:54.061Z,99.90
2019-06-07T10:11:54.982Z,99.90
2019-06-07T10:14:25.378Z,99.90
2019-06-07T10:16:55.718Z,99.90
2019-06-07T10:19:26.133Z,99.90
2019-06-07T10:21:56.498Z,99.90
2019-06-07T10:24:26.922Z,99.90
2019-06-07T10:26:57.148Z,99.90
2019-06-07T10:29:27.710Z,99.90
2019-06-07T10:32:00.021Z,99.90
2019-06-07T10:34:29.154Z,99.90
2019-06-07T10:37:03.008Z,99.90
2019-06-07T10:39:30.085Z,99.90
2019-06-07T10:42:00.925Z,99.90
2019-06-07T10:44:30.925Z,99.90
2019-06-07T10:47:01.760Z,99.90
2019-06-07T10:49:32.355Z,99.90
2019-06-07T10:52:04.758Z,99.90
2019-06-07T10:54:33.273Z,99.90
2019-06-07T10:57:04.816Z,99.90
2019-06-07T10:59:34.205Z,99.90
2019-06-07T11:02:05.736Z,99.90
2019-06-07T11:04:35.404Z,99.90
2019-06-07T11:07:06.424Z,99.90
2019-06-07T11:09:36.515Z,99.90
2019-06-07T11:12:08.306Z,99.90
2019-06-07T11:14:37.255Z,99.90
2019-06-07T11:17:09.241Z,99.90
2019-06-07T11:19:38.087Z,99.90
2019-06-07T11:22:08.388Z,99.90
2019-06-07T11:24:38.682Z,99.90
2019-06-07T11:27:09.670Z,99.90
2019-06-07T11:29:40.297Z,99.90
2019-06-07T11:32:10.618Z,99.90
2019-06-07T11:34:40.934Z,99.90
2019-06-07T11:37:12.069Z,99.90
2019-06-07T11:39:42.057Z,99.90
2019-06-07T11:42:13.952Z,99.90
2019-06-07T11:44:56.298Z,99.90
2019-06-07T11:47:14.527Z,99.90
2019-06-07T11:49:44.027Z,99.90
2019-06-07T11:52:15.643Z,99.90
2019-06-07T11:54:47.947Z,99.90
2019-06-07T11:57:15.536Z,99.90
2019-06-07T11:59:45.850Z,99.90
2019-06-07T12:02:17.600Z,99.90
2019-06-07T12:04:47.178Z,99.90
2019-06-07T12:07:19.971Z,99.90
2019-06-07T12:09:56.482Z,99.90
2019-06-07T12:12:20.515Z,99.90
2019-06-07T12:14:49.588Z,99.90
2019-06-07T12:17:20.067Z,99.90
2019-06-07T12:19:50.342Z,99.90
2019-06-07T12:22:20.714Z,99.90
2019-06-07T12:24:51.068Z,99.90
2019-06-07T12:27:21.533Z,99.90
2019-06-07T12:29:52.332Z,99.90
2019-06-07T12:32:23.186Z,99.90
2019-06-07T12:34:53.487Z,99.90
2019-06-07T12:37:39.080Z,99.90
2019-06-07T12:42:24.140Z,99.90
2019-06-07T12:44:54.508Z,99.90
2019-06-07T12:47:24.985Z,99.90
2019-06-07T12:49:55.610Z,99.90
2019-06-07T12:52:26.156Z,99.90
2019-06-07T12:54:56.860Z,99.90
2019-06-07T12:57:27.349Z,99.90
2019-06-07T12:59:57.880Z,99.90
2019-06-07T13:02:28.320Z,99.90
2019-06-07T13:04:58.501Z,99.90
2019-06-07T13:07:29.013Z,99.90
2019-06-07T13:09:59.541Z,99.90
2019-06-07T13:12:29.990Z,99.90
2019-06-07T13:15:00.346Z,99.90
2019-06-07T13:17:30.661Z,99.90
2019-06-07T13:20:01.065Z,99.90
2019-06-07T13:22:31.544Z,99.90
2019-06-07T13:25:01.852Z,99.90
2019-06-07T13:27:33.756Z,99.90
2019-06-07T13:30:09.972Z,99.90
2019-06-07T13:32:33.564Z,99.90
2019-06-07T13:35:04.427Z,99.90
2019-06-07T13:37:34.785Z,99.90
2019-06-07T13:40:05.423Z,99.90
2019-06-07T13:42:35.878Z,99.90
2019-06-07T13:45:06.697Z,99.90
2019-06-07T13:47:37.132Z,99.90
2019-06-07T13:50:07.566Z,99.90
2019-06-07T13:52:39.862Z,99.90
2019-06-07T13:55:08.797Z,99.90
2019-06-07T13:57:39.125Z,99.90
2019-06-07T14:00:11.210Z,99.90
2019-06-07T14:02:40.771Z,99.90
2019-06-07T14:05:11.133Z,99.90
2019-06-07T14:07:41.482Z,99.90
2019-06-07T14:10:11.951Z,99.90
2019-06-07T14:12:42.290Z,99.90
2019-06-07T14:15:12.963Z,99.00
2019-06-07T14:17:43.250Z,95.10
2019-06-07T14:20:14.015Z,93.20
2019-06-07T14:22:44.578Z,92.70
2019-06-07T14:25:15.082Z,93.90
2019-06-07T14:27:45.430Z,95.60
2019-06-07T14:30:16.267Z,96.30
2019-06-07T14:32:46.653Z,98.30
2019-06-07T14:37:46.829Z,99.90
2019-06-07T14:40:17.307Z,99.90
2019-06-07T14:42:47.803Z,99.90
2019-06-07T14:45:18.460Z,99.90
2019-06-07T14:47:48.883Z,99.90
2019-06-07T14:50:19.498Z,99.90
2019-06-07T14:52:50.003Z,99.90
2019-06-07T14:55:20.441Z,99.90
2019-06-07T14:57:50.950Z,99.90
2019-06-07T15:00:21.894Z,99.90
2019-06-07T15:02:52.313Z,99.90
2019-06-07T15:05:23.507Z,99.90
2019-06-07T15:07:53.884Z,99.90
2019-06-07T15:10:24.166Z,99.90
2019-06-07T15:12:54.670Z,99.80
2019-06-07T15:15:26.383Z,99.90
2019-06-07T15:17:55.533Z,98.40
2019-06-07T15:20:25.833Z,99.30
2019-06-07T15:22:56.326Z,99.10
2019-06-07T15:25:27.076Z,98.90
2019-06-07T15:27:57.245Z,99.70
2019-06-07T15:30:29.593Z,99.80
2019-06-07T15:35:30.235Z,99.90
2019-06-07T15:37:59.910Z,99.90
2019-06-07T15:40:31.030Z,99.90
2019-06-07T15:43:00.729Z,99.90
2019-06-07T15:48:00.915Z,99.90
2019-06-07T15:50:32.194Z,99.90
2019-06-07T15:53:01.678Z,99.90
2019-06-07T15:55:36.786Z,99.90
2019-06-07T15:58:02.533Z,99.90
2019-06-07T16:00:33.315Z,99.90
2019-06-07T16:03:03.417Z,99.90
2019-06-07T16:05:34.291Z,99.90
2019-06-07T16:08:04.529Z,99.90
2019-06-07T16:10:35.086Z,99.40
2019-06-07T16:13:05.758Z,98.70
2019-06-07T16:15:37.087Z,98.40
2019-06-07T16:18:06.794Z,98.40
2019-06-07T16:20:37.382Z,98.30
2019-06-07T16:23:07.773Z,97.60
2019-06-07T16:25:38.194Z,94.40
2019-06-07T16:28:08.667Z,94.40
2019-06-07T16:30:40.503Z,95.00
2019-06-07T16:33:09.937Z,95.90
2019-06-07T16:35:41.090Z,97.00
2019-06-07T16:38:11.007Z,97.40
2019-06-07T16:40:42.434Z,97.70
2019-06-07T16:43:18.006Z,97.80
2019-06-07T16:45:42.866Z,99.90
2019-06-07T16:48:13.252Z,95.70
2019-06-07T16:50:45.051Z,96.20
2019-06-07T16:53:13.953Z,94.60
2019-06-07T16:55:44.828Z,94.30
2019-06-07T16:58:14.706Z,95.90
2019-06-07T17:00:46.414Z,93.60
2019-06-07T17:03:15.653Z,91.90
2019-06-07T17:05:48.945Z,93.30
2019-06-07T17:08:16.514Z,93.70
2019-06-07T17:10:46.791Z,92.80
2019-06-07T17:13:30.167Z,93.40
2019-06-07T17:15:48.876Z,94.30
2019-06-07T17:18:18.110Z,93.50
2019-06-07T17:20:49.447Z,94.10
2019-06-07T17:23:18.807Z,93.60
2019-06-07T17:25:49.800Z,92.70
2019-06-07T17:28:19.664Z,92.10
2019-06-07T17:30:50.500Z,92.30
2019-06-07T17:33:20.977Z,92.40
2019-06-07T17:35:51.352Z,92.40
2019-06-07T17:38:21.831Z,91.80
2019-06-07T17:40:52.114Z,92.70
2019-06-07T17:43:22.626Z,92.80
2019-06-07T17:45:53.006Z,92.50
2019-06-07T17:48:24.177Z,94.00
2019-06-07T17:50:53.756Z,95.20
2019-06-07T17:53:24.063Z,95.10
2019-06-07T17:55:54.426Z,95.80
2019-06-07T17:58:24.832Z,96.30
2019-06-07T18:00:55.316Z,97.20
2019-06-07T18:03:25.890Z,98.60
2019-06-07T18:05:56.402Z,99.30
2019-06-07T18:08:26.979Z,99.90
2019-06-07T18:10:57.281Z,99.90
2019-06-07T18:13:27.815Z,99.90
2019-06-07T18:15:59.858Z,99.90
2019-06-07T18:18:28.795Z,99.90
2019-06-07T18:20:59.161Z,99.90
2019-06-07T18:23:29.587Z,99.90
2019-06-07T18:25:59.861Z,99.90
2019-06-07T18:28:30.369Z,99.90
2019-06-07T18:31:00.995Z,99.90
2019-06-07T18:33:31.601Z,99.90
2019-06-07T18:36:02.100Z,99.90
2019-06-07T18:38:32.582Z,99.90
2019-06-07T18:41:03.031Z,99.90
2019-06-07T18:43:33.498Z,99.90
2019-06-07T18:46:03.929Z,99.90
2019-06-07T18:51:03.954Z,99.90
2019-06-07T18:53:34.305Z,99.90
2019-06-07T18:56:04.702Z,99.90
2019-06-07T18:58:35.530Z,99.90
2019-06-07T19:01:06.032Z,99.90
2019-06-07T19:03:36.509Z,99.90
2019-06-07T19:06:06.996Z,99.90
2019-06-07T19:08:37.503Z,99.90
2019-06-07T19:11:07.985Z,99.90
2019-06-07T19:13:38.585Z,99.90
2019-06-07T19:16:09.227Z,99.90
2019-06-07T19:18:39.739Z,99.90
2019-06-07T19:21:10.090Z,99.90
2019-06-07T19:23:40.501Z,99.90
2019-06-07T19:26:11.105Z,99.90
2019-06-07T19:28:41.626Z,99.90
2019-06-07T19:31:12.160Z,99.90
2019-06-07T19:33:48.976Z,99.90
2019-06-07T19:36:13.161Z,99.90
2019-06-07T19:38:43.668Z,99.90
2019-06-07T19:41:19.720Z,99.90
2019-06-07T19:46:14.354Z,99.90
2019-06-07T19:48:44.714Z,99.90
2019-06-07T19:51:15.260Z,99.90
2019-06-07T19:53:45.818Z,99.90
2019-06-07T19:56:16.323Z,99.90
2019-06-07T19:58:46.745Z,99.90
2019-06-07T20:01:17.013Z,99.90
2019-06-07T20:04:09.618Z,99.90
2019-06-07T20:06:41.150Z,99.90
2019-06-07T20:09:37.413Z,99.90
2019-06-07T20:12:07.903Z,99.90
2019-06-07T20:14:38.282Z,99.90
2019-06-07T20:17:08.638Z,99.90
2019-06-07T20:19:39.218Z,99.90
2019-06-07T20:22:09.814Z,99.90
2019-06-07T20:24:40.270Z,99.90
2019-06-07T20:27:10.654Z,99.90
2019-06-07T20:29:41.429Z,99.90
2019-06-07T20:32:11.934Z,99.90
2019-06-07T20:34:44.727Z,99.90
2019-06-07T20:50:11.972Z,99.90
2019-06-07T20:52:42.955Z,99.90
2019-06-07T20:55:13.313Z,99.90
2019-06-07T20:57:43.866Z,99.90
2019-06-07T21:00:21.460Z,99.90
2019-06-07T21:02:45.116Z,99.90
2019-06-07T21:05:15.838Z,99.90
2019-06-07T21:10:16.154Z,99.90
2019-06-07T21:12:46.610Z,99.90
2019-06-07T21:15:17.103Z,99.90
2019-06-07T21:17:47.358Z,99.90
2019-06-07T21:20:17.885Z,99.90
2019-06-07T21:25:17.819Z,99.90
2019-06-07T21:27:48.352Z,99.90
2019-06-07T21:30:18.981Z,99.90
2019-06-07T21:32:49.503Z,99.90
2019-06-07T21:35:20.270Z,99.90
2019-06-07T21:37:50.727Z,99.90
2019-06-07T21:40:21.121Z,99.90
2019-06-07T21:42:51.498Z,99.90
2019-06-07T21:45:21.983Z,99.90
2019-06-07T21:47:52.362Z,99.90
2019-06-07T21:52:52.614Z,99.90
2019-06-07T21:57:52.722Z,99.90
2019-06-07T22:00:26.081Z,99.90
2019-06-07T22:02:56.557Z,99.90
2019-06-07T22:05:28.650Z,99.90
2019-06-07T22:07:58.937Z,99.90
2019-06-07T22:10:29.370Z,99.90
2019-06-07T22:12:59.836Z,99.90
2019-06-07T22:15:35.357Z,99.90
2019-06-07T22:18:01.054Z,99.90
2019-06-07T22:20:31.526Z,99.90
2019-06-07T22:23:02.042Z,99.90
2019-06-07T22:25:32.499Z,99.90
2019-06-07T22:28:02.967Z,99.90
2019-06-07T22:30:33.384Z,99.90
2019-06-07T22:33:03.837Z,99.90
2019-06-07T22:35:34.373Z,99.90
2019-06-07T22:38:05.963Z,99.90
2019-06-07T22:40:35.468Z,99.90
2019-06-07T22:43:05.939Z,99.90
2019-06-07T22:45:36.565Z,99.90
2019-06-07T22:48:06.999Z,99.90
2019-06-07T22:50:37.423Z,99.90
2019-06-07T22:53:07.976Z,99.90
2019-06-07T22:55:38.344Z,99.90
2019-06-07T22:58:10.016Z,99.90
2019-06-07T23:00:39.556Z,99.90
2019-06-07T23:03:10.664Z,99.90
2019-06-07T23:05:49.967Z,99.90
2019-06-07T23:08:20.605Z,99.90
2019-06-07T23:10:54.610Z,99.90
2019-06-07T23:13:25.135Z,99.90
2019-06-07T23:15:55.647Z,99.90
2019-06-07T23:18:26.014Z,99.90
2019-06-07T23:20:56.432Z,99.90
2019-06-07T23:23:26.952Z,99.90
2019-06-07T23:25:57.417Z,99.90
2019-06-07T23:28:27.967Z,99.90
2019-06-07T23:30:58.398Z,99.90
2019-06-07T23:33:28.844Z,99.90
2019-06-07T23:35:59.483Z,99.90
2019-06-07T23:38:29.802Z,99.90
2019-06-07T23:41:00.240Z,99.90
2019-06-07T23:43:30.687Z,99.90
2019-06-07T23:46:01.317Z,99.90
2019-06-07T23:48:31.825Z,99.90
2019-06-07T23:51:02.191Z,99.90
2019-06-07T23:53:32.726Z,99.90
2019-06-07T23:56:03.204Z,99.90
2019-06-07T23:58:33.812Z,99.90
